Time;durP1;ratioP1;P1;durP2;ratioP2;P2;SDS_P1;SDS_P2;PMS_P1;PMS_P2;Temp;Humidity;BMP_temperature;BMP_pressure;BME280_temperature;BME280_humidity;BME280_pressure;Samples;Min_cycle;Max_cycle;Signal;HPM_P1;HPM_P2
2021/10/09 00:00:44;;;;;;;21.17;11.60;;;7.60;93.30;;;;;;4992332;28;20031;-82
2021/10/09 00:03:09;;;;;;;20.80;10.57;;;7.60;93.10;;;;;;4993417;28;20113;-82
2021/10/09 00:05:35;;;;;;;21.98;11.35;;;7.50;92.90;;;;;;4995123;28;20015;-82
2021/10/09 00:08:01;;;;;;;20.20;10.93;;;7.50;92.90;;;;;;4991559;28;20058;-82
2021/10/09 00:10:29;;;;;;;19.65;11.48;;;7.40;92.70;;;;;;4992708;28;20065;-82
2021/10/09 00:12:55;;;;;;;25.47;11.20;;;7.40;92.40;;;;;;4990748;28;20110;-81
2021/10/09 00:15:22;;;;;;;22.50;10.95;;;7.30;92.50;;;;;;4992261;28;20342;-82
2021/10/09 00:17:48;;;;;;;21.75;11.32;;;7.30;92.60;;;;;;4995572;28;20386;-81
2021/10/09 00:20:13;;;;;;;22.65;10.60;;;7.30;92.60;;;;;;5001414;28;20089;-81
2021/10/09 00:22:39;;;;;;;20.67;11.55;;;7.20;92.80;;;;;;4994121;28;20045;-81
2021/10/09 00:25:06;;;;;;;23.35;11.60;;;7.10;93.00;;;;;;4997321;28;20034;-81
2021/10/09 00:27:32;;;;;;;22.38;11.65;;;7.10;93.20;;;;;;5000164;28;20029;-81
2021/10/09 00:29:57;;;;;;;23.63;12.63;;;7.10;93.30;;;;;;4987031;28;20710;-81
2021/10/09 00:32:23;;;;;;;22.65;11.05;;;7.10;93.70;;;;;;4998612;28;20054;-81
2021/10/09 00:34:49;;;;;;;24.98;11.65;;;7.20;94.10;;;;;;4998149;28;20029;-81
2021/10/09 00:37:15;;;;;;;24.13;12.45;;;7.20;94.20;;;;;;4990861;28;20039;-81
2021/10/09 00:39:40;;;;;;;23.92;12.35;;;7.20;94.30;;;;;;4997447;28;20488;-82
2021/10/09 00:42:06;;;;;;;22.55;11.40;;;7.20;94.20;;;;;;5003509;28;20409;-82
2021/10/09 00:44:32;;;;;;;22.92;11.32;;;7.20;94.30;;;;;;4998418;28;20044;-81
2021/10/09 00:47:01;;;;;;;21.70;11.75;;;7.20;94.30;;;;;;4998076;28;20034;-81
2021/10/09 00:49:28;;;;;;;21.98;12.32;;;7.30;94.50;;;;;;4996134;28;20053;-81
2021/10/09 00:51:56;;;;;;;22.05;11.65;;;7.30;94.50;;;;;;4997886;28;20396;-82
2021/10/09 00:54:23;;;;;;;24.27;12.23;;;7.30;94.50;;;;;;4991212;28;20053;-81
2021/10/09 00:56:51;;;;;;;22.15;11.30;;;7.30;94.30;;;;;;4998401;28;20036;-81
2021/10/09 00:59:18;;;;;;;20.45;10.13;;;7.20;93.90;;;;;;4992439;28;20081;-82
2021/10/09 01:01:44;;;;;;;17.85;10.63;;;7.10;93.70;;;;;;4996064;28;20041;-81
2021/10/09 01:04:10;;;;;;;20.73;11.23;;;7.10;93.80;;;;;;4996597;28;20400;-81
2021/10/09 01:06:35;;;;;;;23.73;11.57;;;7.10;93.90;;;;;;4989175;28;20027;-81
2021/10/09 01:09:03;;;;;;;21.35;11.05;;;7.10;94.00;;;;;;4994102;28;20022;-81
2021/10/09 01:11:30;;;;;;;26.58;11.20;;;7.10;94.00;;;;;;4990850;28;20406;-81
2021/10/09 01:13:57;;;;;;;25.63;12.73;;;7.00;94.10;;;;;;4981742;28;20042;-81
2021/10/09 01:16:25;;;;;;;21.38;11.55;;;7.00;94.20;;;;;;4995887;28;20141;-81
2021/10/09 01:18:53;;;;;;;22.55;11.48;;;7.00;94.20;;;;;;4995529;28;20401;-82
2021/10/09 01:21:19;;;;;;;20.98;10.20;;;7.00;94.40;;;;;;4996641;28;20080;-81
2021/10/09 01:23:46;;;;;;;19.95;10.45;;;6.90;94.40;;;;;;5004288;28;20029;-82
2021/10/09 01:26:21;;;;;;;19.48;9.75;;;6.90;94.10;;;;;;4998869;28;20022;-80
2021/10/09 01:28:51;;;;;;;20.30;9.80;;;6.90;93.60;;;;;;4997149;28;20034;-81
2021/10/09 01:31:18;;;;;;;21.60;10.27;;;6.80;93.50;;;;;;5004594;28;20041;-81
2021/10/09 01:33:44;;;;;;;18.40;9.80;;;6.70;93.50;;;;;;4995118;28;20030;-81
2021/10/09 01:36:10;;;;;;;20.30;10.05;;;6.70;94.10;;;;;;5008526;28;20026;-81
2021/10/09 01:38:38;;;;;;;23.35;10.90;;;6.70;94.20;;;;;;4995920;28;20038;-82
2021/10/09 01:41:05;;;;;;;20.65;10.77;;;6.70;94.30;;;;;;4996875;28;20106;-82
2021/10/09 01:43:31;;;;;;;30.13;12.00;;;6.70;94.20;;;;;;4991161;28;20109;-82
2021/10/09 01:45:56;;;;;;;18.50;10.68;;;6.70;94.40;;;;;;4994811;28;20076;-81
2021/10/09 01:48:30;;;;;;;19.13;11.00;;;6.70;94.70;;;;;;4990870;28;20045;-81
2021/10/09 01:50:56;;;;;;;20.85;11.02;;;6.80;94.70;;;;;;5002206;28;20037;-81
2021/10/09 01:53:22;;;;;;;19.77;10.88;;;6.80;95.00;;;;;;4996074;28;21592;-81
2021/10/09 01:55:48;;;;;;;24.55;11.13;;;6.80;94.90;;;;;;4999954;28;20113;-81
2021/10/09 01:58:13;;;;;;;21.85;11.65;;;6.80;95.00;;;;;;4996968;28;20117;-81
2021/10/09 02:00:39;;;;;;;19.50;10.25;;;6.90;95.00;;;;;;4995447;28;20026;-81
2021/10/09 02:03:06;;;;;;;26.00;10.50;;;6.90;94.90;;;;;;4998461;28;20081;-81
2021/10/09 02:05:32;;;;;;;18.85;10.55;;;6.80;94.80;;;;;;5003662;28;20105;-81
2021/10/09 02:07:58;;;;;;;19.80;9.98;;;6.80;94.70;;;;;;4996433;28;20022;-80
2021/10/09 02:10:24;;;;;;;16.92;9.55;;;6.80;94.70;;;;;;4994878;28;20049;-81
2021/10/09 02:12:50;;;;;;;18.65;9.88;;;6.80;94.60;;;;;;4995366;28;20749;-80
2021/10/09 02:15:20;;;;;;;16.20;9.52;;;6.80;94.60;;;;;;4993367;28;20085;-82
2021/10/09 02:18:08;;;;;;;17.67;10.68;;;6.80;94.60;;;;;;4994825;28;20045;-81
2021/10/09 02:26:22;;;;;;;25.92;11.60;;;6.90;95.00;;;;;;4977065;28;20019;-81
2021/10/09 02:28:48;;;;;;;18.80;10.75;;;6.90;95.00;;;;;;4973672;28;20038;-81
2021/10/09 02:31:13;;;;;;;23.02;10.93;;;6.90;95.00;;;;;;4981166;28;20041;-80
2021/10/09 02:33:39;;;;;;;16.15;8.80;;;6.90;95.00;;;;;;4993734;28;20098;-80
2021/10/09 02:36:05;;;;;;;19.73;10.20;;;6.80;94.90;;;;;;4991137;28;20026;-81
2021/10/09 02:38:30;;;;;;;17.30;9.38;;;6.90;95.10;;;;;;4993304;28;20034;-81
2021/10/09 02:40:56;;;;;;;25.77;10.05;;;6.90;95.30;;;;;;4997791;28;20030;-81
2021/10/09 02:43:22;;;;;;;19.80;9.60;;;6.90;94.90;;;;;;4993993;28;20015;-81
2021/10/09 02:45:48;;;;;;;17.25;9.43;;;6.90;94.80;;;;;;4996247;28;20048;-81
2021/10/09 02:48:16;;;;;;;15.75;8.73;;;6.90;94.90;;;;;;4998721;28;20057;-81
2021/10/09 02:50:43;;;;;;;18.33;9.23;;;6.90;94.90;;;;;;4986188;28;20035;-81
2021/10/09 02:53:09;;;;;;;20.17;10.98;;;6.90;95.00;;;;;;4994735;28;20034;-81
2021/10/09 02:55:34;;;;;;;19.25;9.68;;;6.80;94.80;;;;;;4983338;28;20041;-81
2021/10/09 02:58:00;;;;;;;16.25;9.18;;;6.80;94.80;;;;;;4992162;28;20124;-81
2021/10/09 03:00:26;;;;;;;20.20;9.50;;;6.80;94.70;;;;;;4994290;28;20509;-81
2021/10/09 03:02:51;;;;;;;18.92;9.07;;;6.80;94.70;;;;;;4984943;28;20474;-81
2021/10/09 03:05:18;;;;;;;18.42;9.77;;;6.70;94.80;;;;;;4981837;28;20358;-81
2021/10/09 03:07:44;;;;;;;16.13;9.27;;;6.70;94.50;;;;;;4987971;28;20033;-81
2021/10/09 03:10:10;;;;;;;18.38;8.82;;;6.70;94.70;;;;;;4990077;28;20022;-80
2021/10/09 03:12:37;;;;;;;18.90;10.00;;;6.70;94.70;;;;;;4992739;28;20058;-81
2021/10/09 03:15:04;;;;;;;18.38;9.18;;;6.70;95.00;;;;;;4996029;28;20030;-81
2021/10/09 03:17:30;;;;;;;13.50;8.50;;;6.70;95.30;;;;;;4987798;28;20054;-81
2021/10/09 03:19:55;;;;;;;18.70;8.88;;;6.70;95.10;;;;;;4998966;28;20045;-80
2021/10/09 03:22:21;;;;;;;20.05;9.80;;;6.70;95.20;;;;;;5007486;28;20022;-80
2021/10/09 03:24:46;;;;;;;13.98;8.50;;;6.70;95.10;;;;;;4986536;28;20034;-80
2021/10/09 03:27:12;;;;;;;15.95;8.77;;;6.70;95.50;;;;;;4995088;28;20081;-81
2021/10/09 03:29:38;;;;;;;17.35;9.32;;;6.70;95.10;;;;;;4981046;28;20026;-80
2021/10/09 03:32:04;;;;;;;18.20;10.00;;;6.70;95.10;;;;;;4985960;28;20043;-81
2021/10/09 03:34:32;;;;;;;16.85;9.70;;;6.70;95.20;;;;;;5011254;28;20027;-81
2021/10/09 03:37:06;;;;;;;15.52;8.55;;;6.70;95.20;;;;;;4987508;28;20038;-81
2021/10/09 03:39:34;;;;;;;16.10;9.15;;;6.70;95.10;;;;;;4989635;28;20568;-81
2021/10/09 03:42:05;;;;;;;16.80;9.55;;;6.60;95.20;;;;;;4994375;28;20046;-81
2021/10/09 03:44:36;;;;;;;21.45;10.40;;;6.50;95.00;;;;;;4994269;28;20026;-81
2021/10/09 03:47:30;;;;;;;15.00;9.50;;;6.50;95.00;;;;;;4985969;28;20063;-80
2021/10/09 03:49:57;;;;;;;17.42;9.35;;;6.50;95.30;;;;;;4991462;28;20756;-80
2021/10/09 03:52:41;;;;;;;21.80;9.90;;;6.50;95.40;;;;;;4997703;28;20030;-80
2021/10/09 03:55:16;;;;;;;17.98;9.48;;;6.50;95.20;;;;;;4979483;28;20023;-80
2021/10/09 03:57:43;;;;;;;20.42;8.98;;;6.50;95.30;;;;;;5006699;28;20026;-80
2021/10/09 04:00:11;;;;;;;21.17;10.27;;;6.50;95.20;;;;;;5010796;28;20042;-80
2021/10/09 04:02:37;;;;;;;20.90;9.48;;;6.50;95.10;;;;;;5002875;28;20043;-81
2021/10/09 04:05:03;;;;;;;17.90;10.52;;;6.50;95.10;;;;;;5003454;28;20034;-80
2021/10/09 04:07:29;;;;;;;17.95;9.38;;;6.50;95.00;;;;;;4993778;28;20032;-81
2021/10/09 04:09:54;;;;;;;18.88;10.10;;;6.40;95.10;;;;;;4989556;28;20045;-81
2021/10/09 04:12:20;;;;;;;17.17;10.15;;;6.40;95.30;;;;;;4992931;28;20551;-81
2021/10/09 04:14:47;;;;;;;20.48;9.80;;;6.40;95.30;;;;;;4989085;28;20031;-81
2021/10/09 04:17:13;;;;;;;16.35;8.60;;;6.40;95.30;;;;;;4988054;28;20030;-81
2021/10/09 04:19:39;;;;;;;16.60;8.75;;;6.40;95.20;;;;;;4993107;28;20034;-81
2021/10/09 04:22:05;;;;;;;19.65;10.23;;;6.40;95.10;;;;;;4993207;28;20034;-81
2021/10/09 04:24:31;;;;;;;16.52;9.27;;;6.30;95.10;;;;;;4997230;28;20023;-81
2021/10/09 04:26:57;;;;;;;16.00;9.82;;;6.30;95.20;;;;;;4993761;28;20035;-81
2021/10/09 04:29:22;;;;;;;13.48;8.80;;;6.40;95.60;;;;;;4989372;28;20026;-82
2021/10/09 04:31:49;;;;;;;16.73;9.80;;;6.40;95.30;;;;;;4991693;28;20080;-82
2021/10/09 04:34:14;;;;;;;18.20;9.52;;;6.40;95.30;;;;;;4995300;28;20037;-81
2021/10/09 04:36:40;;;;;;;19.30;9.88;;;6.30;95.30;;;;;;4992116;28;20034;-81
2021/10/09 04:39:06;;;;;;;19.88;10.15;;;6.30;95.20;;;;;;4994180;28;20034;-81
2021/10/09 04:41:32;;;;;;;14.63;9.63;;;6.30;95.10;;;;;;5007323;28;20027;-81
2021/10/09 04:43:57;;;;;;;17.88;9.48;;;6.20;94.90;;;;;;4997054;28;20038;-81
2021/10/09 04:46:23;;;;;;;16.27;9.43;;;6.20;94.80;;;;;;4990454;28;20029;-81
2021/10/09 04:48:49;;;;;;;14.40;9.00;;;6.20;94.90;;;;;;5002328;28;20038;-81
2021/10/09 04:51:14;;;;;;;18.55;9.90;;;6.20;95.20;;;;;;4988228;28;20144;-81
2021/10/09 04:53:40;;;;;;;17.75;8.68;;;6.20;95.20;;;;;;4993553;28;20101;-81
2021/10/09 04:56:06;;;;;;;14.82;9.60;;;6.20;95.50;;;;;;4992233;28;20030;-80
2021/10/09 04:58:32;;;;;;;16.65;10.00;;;6.20;95.50;;;;;;4983205;28;20041;-81
2021/10/09 05:00:57;;;;;;;15.82;9.35;;;6.20;95.20;;;;;;4986560;28;20035;-81
2021/10/09 05:03:23;;;;;;;21.90;9.52;;;6.20;95.40;;;;;;4994002;28;20069;-81
2021/10/09 05:05:49;;;;;;;17.67;8.80;;;6.10;95.10;;;;;;4994293;28;20040;-81
2021/10/09 05:08:15;;;;;;;15.95;9.48;;;6.10;95.20;;;;;;4992753;28;20580;-80
2021/10/09 05:10:42;;;;;;;18.25;9.52;;;6.10;95.20;;;;;;4996596;28;20571;-80
2021/10/09 05:13:11;;;;;;;16.05;9.38;;;6.00;95.30;;;;;;5001962;28;20061;-80
2021/10/09 05:15:41;;;;;;;15.90;8.98;;;6.00;95.40;;;;;;5000511;28;20035;-81
2021/10/09 05:18:08;;;;;;;20.85;10.18;;;6.00;95.80;;;;;;4997109;28;20485;-81
2021/10/09 05:20:34;;;;;;;20.77;10.65;;;6.00;95.80;;;;;;4998047;28;20437;-81
2021/10/09 05:22:59;;;;;;;20.70;9.75;;;6.00;95.80;;;;;;4999162;28;20026;-81
2021/10/09 05:25:26;;;;;;;17.60;10.07;;;6.00;95.70;;;;;;4997641;28;20030;-81
2021/10/09 05:28:03;;;;;;;19.27;10.20;;;5.90;95.70;;;;;;4996659;28;20129;-81
2021/10/09 05:30:29;;;;;;;18.45;9.80;;;5.90;95.80;;;;;;4992345;28;20019;-81
2021/10/09 05:35:59;;;;;;;15.43;9.75;;;5.90;96.10;;;;;;4980634;28;20034;-81
2021/10/09 05:38:25;;;;;;;19.17;10.13;;;5.90;96.20;;;;;;4974553;28;20027;-81
2021/10/09 05:40:51;;;;;;;15.60;10.68;;;5.80;96.00;;;;;;4985487;28;20041;-80
2021/10/09 05:43:19;;;;;;;17.65;9.68;;;5.80;96.20;;;;;;4995592;28;20053;-80
2021/10/09 05:45:45;;;;;;;;;;;5.80;96.10;;;;;;4993967;28;20027;-81
2021/10/09 05:48:11;;;;;;;16.63;9.27;;;5.80;96.00;;;;;;4989288;28;20004;-81
2021/10/09 05:50:46;;;;;;;16.42;9.00;;;5.80;95.90;;;;;;5006042;28;20045;-80
2021/10/09 05:56:00;;;;;;;18.38;10.35;;;5.80;95.70;;;;;;5012807;28;20123;-81
2021/10/09 05:58:38;;;;;;;23.10;10.95;;;5.80;95.80;;;;;;4995648;28;20026;-80
2021/10/09 06:25:21;;;;;;;17.02;9.82;;;5.80;95.80;;;;;;4987020;28;20497;-81
2021/10/09 06:26:03;;;;;;;36.53;17.05;;;6.50;99.20;;;;;;4989987;28;20401;-81
2021/10/09 06:47:36;;;;;;;33.80;16.58;;;7.20;98.50;;;;;;4999741;28;20037;-81
2021/10/09 07:00:40;;;;;;;31.95;17.00;;;7.40;97.70;;;;;;4992265;28;20070;-81
2021/10/09 07:03:06;;;;;;;34.90;16.88;;;7.40;97.40;;;;;;4983525;28;20034;-81
2021/10/09 07:05:34;;;;;;;33.13;17.20;;;7.50;97.30;;;;;;4993307;28;20073;-81
2021/10/09 07:08:08;;;;;;;35.03;16.47;;;7.50;97.20;;;;;;4992586;28;20029;-81
2021/10/09 07:10:39;;;;;;;37.75;18.20;;;7.60;96.90;;;;;;4992419;28;20437;-81
2021/10/09 07:13:05;;;;;;;35.97;18.95;;;7.60;97.00;;;;;;4997298;28;20117;-81
2021/10/09 07:15:31;;;;;;;35.53;18.45;;;7.60;97.00;;;;;;4998448;28;20049;-82
2021/10/09 07:17:57;;;;;;;37.00;17.90;;;7.60;97.00;;;;;;4994342;28;20714;-81
2021/10/09 07:20:23;;;;;;;40.50;19.00;;;7.70;96.90;;;;;;4993800;28;20018;-82
2021/10/09 07:22:49;;;;;;;36.72;18.65;;;7.70;96.50;;;;;;5000603;28;20025;-82
2021/10/09 07:25:15;;;;;;;34.78;17.95;;;7.70;97.00;;;;;;4989207;28;20023;-81
2021/10/09 07:27:41;;;;;;;34.63;17.65;;;7.80;96.70;;;;;;4996130;28;20158;-81
2021/10/09 07:30:08;;;;;;;34.08;19.10;;;7.90;96.80;;;;;;4994028;28;20499;-81
2021/10/09 07:32:34;;;;;;;39.70;18.20;;;8.00;96.80;;;;;;4992905;28;20108;-81
2021/10/09 07:35:00;;;;;;;34.33;17.15;;;8.00;96.60;;;;;;4992666;28;20080;-81
2021/10/09 07:37:25;;;;;;;38.03;17.27;;;8.00;96.10;;;;;;4994037;28;20447;-81
2021/10/09 07:39:51;;;;;;;34.17;18.77;;;8.00;96.00;;;;;;4993109;28;20045;-81
2021/10/09 07:42:17;;;;;;;34.58;17.17;;;8.00;96.30;;;;;;4989621;28;20039;-81
2021/10/09 07:44:43;;;;;;;30.08;17.55;;;8.10;95.80;;;;;;4997143;28;20030;-82
2021/10/09 07:47:13;;;;;;;39.63;18.13;;;8.10;95.60;;;;;;4993959;28;20098;-82
2021/10/09 07:49:39;;;;;;;32.85;17.55;;;8.20;96.00;;;;;;4996635;28;20039;-81
2021/10/09 07:52:05;;;;;;;35.15;17.27;;;8.30;96.60;;;;;;4986194;28;20026;-82
2021/10/09 07:54:30;;;;;;;32.22;17.60;;;8.30;96.00;;;;;;4994519;28;20041;-81
2021/10/09 07:56:56;;;;;;;29.63;16.52;;;8.40;95.60;;;;;;4993971;28;20789;-82
2021/10/09 07:59:22;;;;;;;35.67;18.38;;;8.40;95.30;;;;;;4993970;28;20026;-82
2021/10/09 08:01:47;;;;;;;33.95;16.08;;;8.40;95.30;;;;;;4983610;28;20110;-78
2021/10/09 08:04:15;;;;;;;33.42;16.90;;;8.40;95.00;;;;;;4987949;28;20489;-80
2021/10/09 08:06:41;;;;;;;39.23;20.37;;;8.50;95.10;;;;;;4992238;28;20031;-82
2021/10/09 08:09:08;;;;;;;35.75;17.73;;;8.60;95.00;;;;;;4990635;28;20065;-82
2021/10/09 08:11:34;;;;;;;36.38;18.17;;;8.60;94.90;;;;;;4991901;28;20042;-81
2021/10/09 08:14:00;;;;;;;32.65;16.55;;;8.50;94.10;;;;;;4992640;28;20146;-81
2021/10/09 08:16:26;;;;;;;34.83;17.17;;;8.50;94.30;;;;;;4988882;28;20069;-81
2021/10/09 08:18:52;;;;;;;38.38;18.63;;;8.60;94.60;;;;;;4989600;28;20030;-81
2021/10/09 08:21:23;;;;;;;34.50;17.38;;;8.70;95.00;;;;;;4996130;28;20098;-81
2021/10/09 08:39:41;;;;;;;30.02;16.38;;;9.10;93.20;;;;;;4994939;28;20026;-81
2021/10/09 08:42:07;;;;;;;34.10;17.73;;;9.10;93.30;;;;;;4996502;28;20031;-81
2021/10/09 08:44:34;;;;;;;31.00;16.55;;;9.10;92.90;;;;;;4997312;28;20029;-81
2021/10/09 08:47:01;;;;;;;31.85;16.27;;;9.10;93.40;;;;;;4993453;28;20046;-82
2021/10/09 08:49:27;;;;;;;37.47;17.40;;;9.00;93.10;;;;;;4995241;28;20038;-81
2021/10/09 08:51:53;;;;;;;28.52;15.73;;;8.90;93.10;;;;;;4991099;28;20030;-82
2021/10/09 08:54:19;;;;;;;31.63;17.38;;;9.00;92.70;;;;;;4995860;28;20023;-82
2021/10/09 08:56:48;;;;;;;32.28;16.48;;;8.80;93.00;;;;;;4996034;28;20401;-82
2021/10/09 09:02:29;;;;;;;35.78;17.80;;;9.00;92.70;;;;;;5007333;28;20064;-80
2021/10/09 09:07:43;;;;;;;36.60;18.08;;;9.00;92.70;;;;;;5002198;28;20419;-81
2021/10/09 09:35:04;;;;;;;34.17;17.00;;;9.80;91.90;;;;;;4991372;28;20033;-81
2021/10/09 09:40:16;;;;;;;36.67;17.70;;;9.80;91.60;;;;;;4993440;28;20023;-81
2021/10/09 09:42:45;;;;;;;32.78;15.82;;;10.00;91.50;;;;;;5012753;28;20031;-81
2021/10/09 09:45:12;;;;;;;33.03;15.10;;;10.00;90.70;;;;;;4991870;28;20029;-81
2021/10/09 09:47:40;;;;;;;30.53;15.67;;;10.00;90.10;;;;;;5002172;28;20026;-81
2021/10/09 09:50:09;;;;;;;28.98;15.45;;;10.10;90.70;;;;;;5012076;28;20027;-82
2021/10/09 09:52:40;;;;;;;30.23;14.50;;;10.20;90.40;;;;;;4998264;28;20047;-81
2021/10/09 09:55:10;;;;;;;34.92;16.33;;;10.20;90.20;;;;;;4997612;28;20030;-82
2021/10/09 09:57:36;;;;;;;26.33;14.50;;;10.30;88.60;;;;;;4994019;28;20054;-82
2021/10/09 10:00:14;;;;;;;29.75;16.05;;;10.20;88.80;;;;;;4991338;28;20257;-78
2021/10/09 10:02:44;;;;;;;29.80;14.57;;;10.30;89.40;;;;;;4993692;28;20437;-80
2021/10/09 10:05:12;;;;;;;25.60;15.00;;;10.40;88.50;;;;;;4996737;28;20011;-79
2021/10/09 10:07:39;;;;;;;31.15;15.95;;;10.40;87.60;;;;;;4994124;28;20667;-78
2021/10/09 10:10:05;;;;;;;29.25;15.48;;;10.50;89.20;;;;;;4994344;28;20038;-83
2021/10/09 10:12:31;;;;;;;31.77;15.00;;;10.50;87.90;;;;;;4997825;28;20057;-76
2021/10/09 10:14:58;;;;;;;22.42;12.45;;;10.60;89.00;;;;;;4991603;28;20408;-75
2021/10/09 10:17:41;;;;;;;24.00;12.27;;;10.70;84.00;;;;;;4993397;28;20415;-75
2021/10/09 10:20:09;;;;;;;26.55;14.07;;;10.80;85.00;;;;;;4994064;28;20035;-75
2021/10/09 10:22:34;;;;;;;25.50;13.10;;;10.90;83.80;;;;;;4996015;28;20086;-77
2021/10/09 10:25:01;;;;;;;24.20;11.63;;;10.80;83.60;;;;;;4991581;28;20513;-79
2021/10/09 10:27:35;;;;;;;22.30;12.85;;;10.80;83.30;;;;;;4992281;28;20054;-82
2021/10/09 10:30:13;;;;;;;24.17;11.88;;;10.90;82.10;;;;;;4994780;28;20084;-82
2021/10/09 10:32:40;;;;;;;22.05;11.57;;;10.90;80.90;;;;;;4999007;28;20477;-81
2021/10/09 10:35:25;;;;;;;22.42;13.32;;;10.90;80.80;;;;;;5000642;28;20031;-80
2021/10/09 10:37:50;;;;;;;19.27;12.15;;;10.90;82.30;;;;;;4997231;28;20462;-81
2021/10/09 10:40:54;;;;;;;24.73;11.07;;;11.00;82.50;;;;;;5000305;28;20053;-81
2021/10/09 10:45:59;;;;;;;21.10;12.35;;;11.20;82.00;;;;;;5000562;28;20478;-80
2021/10/09 10:48:44;;;;;;;19.85;11.07;;;11.40;84.60;;;;;;5001623;28;20060;-80
2021/10/09 10:51:40;;;;;;;22.73;11.57;;;11.30;78.50;;;;;;5011921;28;20045;-80
2021/10/09 10:56:33;;;;;;;15.65;10.77;;;11.40;78.50;;;;;;5001471;28;20034;-81
2021/10/09 10:59:34;;;;;;;17.67;11.00;;;11.40;77.70;;;;;;5001309;28;20034;-80
2021/10/09 11:02:13;;;;;;;22.10;11.43;;;11.50;78.40;;;;;;4991971;28;20039;-80
2021/10/09 11:05:06;;;;;;;23.77;11.02;;;11.60;79.70;;;;;;4995183;28;20096;-80
2021/10/09 11:07:40;;;;;;;18.67;10.27;;;11.80;77.90;;;;;;4999088;28;20134;-81
2021/10/09 11:10:11;;;;;;;17.92;10.65;;;11.80;75.60;;;;;;4994356;28;20030;-82
2021/10/09 11:12:37;;;;;;;18.98;9.60;;;11.80;74.40;;;;;;4998953;28;20062;-81
2021/10/09 11:15:22;;;;;;;19.08;10.32;;;11.80;75.70;;;;;;4995198;28;20058;-83
2021/10/09 11:18:02;;;;;;;16.60;10.40;;;12.00;74.80;;;;;;5002448;28;20042;-82
2021/10/09 11:20:36;;;;;;;18.35;9.48;;;12.00;75.50;;;;;;4996968;28;20030;-82
2021/10/09 11:23:04;;;;;;;18.95;9.57;;;12.10;74.70;;;;;;4997075;28;20034;-85
2021/10/09 11:25:35;;;;;;;18.63;9.40;;;12.30;76.30;;;;;;4996723;28;20030;-83
2021/10/09 11:28:07;;;;;;;15.65;8.57;;;12.40;73.80;;;;;;4999869;28;20113;-84
2021/10/09 11:30:33;;;;;;;15.35;9.18;;;12.30;73.50;;;;;;4996418;28;20058;-83
2021/10/09 11:33:00;;;;;;;16.17;9.02;;;12.40;72.90;;;;;;4992543;28;20073;-82
2021/10/09 11:35:40;;;;;;;15.02;9.25;;;12.50;73.90;;;;;;4996332;28;20032;-84
2021/10/09 11:38:27;;;;;;;14.05;9.15;;;12.50;72.70;;;;;;4994788;28;20070;-83
2021/10/09 11:40:57;;;;;;;13.15;8.20;;;12.60;71.70;;;;;;4991422;28;20531;-83
2021/10/09 11:55:16;;;;;;;12.60;7.80;;;13.00;68.70;;;;;;4998502;28;20045;-81
2021/10/09 11:57:09;;;;;;;15.95;8.15;;;13.20;71.80;;;;;;4984933;28;20077;-81
2021/10/09 11:59:40;;;;;;;11.23;6.93;;;13.20;71.00;;;;;;5001516;28;20069;-81
2021/10/09 12:02:06;;;;;;;11.75;6.80;;;13.10;67.90;;;;;;4991575;28;20073;-82
2021/10/09 12:04:32;;;;;;;11.80;6.70;;;13.10;67.80;;;;;;4987481;28;20034;-84
2021/10/09 12:07:08;;;;;;;12.43;5.75;;;13.10;67.50;;;;;;4995279;28;20029;-82
2021/10/09 12:09:58;;;;;;;14.43;7.05;;;13.20;68.40;;;;;;4993593;28;20465;-82
2021/10/09 12:12:35;;;;;;;11.43;6.72;;;13.20;65.90;;;;;;4994592;28;20063;-82
2021/10/09 12:15:02;;;;;;;12.43;6.75;;;13.20;66.30;;;;;;4997313;28;20116;-81
2021/10/09 12:17:36;;;;;;;12.50;6.47;;;13.30;67.70;;;;;;4999965;28;20225;-81
2021/10/09 12:20:05;;;;;;;10.13;6.10;;;13.30;64.30;;;;;;4994828;28;20152;-86
2021/10/09 12:22:42;;;;;;;9.38;5.43;;;13.30;65.00;;;;;;4974767;28;20032;-81
2021/10/09 12:25:22;;;;;;;13.57;6.80;;;13.30;65.20;;;;;;4991595;28;20038;-82
2021/10/09 12:27:59;;;;;;;12.48;6.38;;;13.20;65.00;;;;;;4998621;28;20041;-83
2021/10/09 12:30:44;;;;;;;9.93;5.80;;;13.30;65.90;;;;;;4987565;28;20060;-83
2021/10/09 12:33:10;;;;;;;11.27;6.15;;;13.30;64.30;;;;;;4997872;28;20045;-82
2021/10/09 12:35:37;;;;;;;11.90;6.82;;;13.40;66.70;;;;;;4995122;28;20030;-84
2021/10/09 12:38:08;;;;;;;11.40;6.68;;;13.40;64.80;;;;;;4996323;28;20034;-83
2021/10/09 12:40:48;;;;;;;11.23;7.03;;;13.40;65.40;;;;;;4992654;28;20066;-84
2021/10/09 12:43:22;;;;;;;11.40;6.63;;;13.50;66.00;;;;;;5013231;28;20018;-83
2021/10/09 12:45:48;;;;;;;12.88;6.60;;;13.50;64.90;;;;;;4998878;28;20026;-85
2021/10/09 12:48:14;;;;;;;16.95;6.57;;;13.40;63.50;;;;;;5001530;28;20029;-83
2021/10/09 12:50:42;;;;;;;13.23;6.68;;;13.40;63.60;;;;;;5001255;28;20041;-83
2021/10/09 12:53:08;;;;;;;10.80;6.22;;;13.50;67.00;;;;;;5003169;28;20053;-82
2021/10/09 12:55:35;;;;;;;12.77;6.47;;;13.70;65.40;;;;;;5005329;28;20755;-83
2021/10/09 12:58:04;;;;;;;10.02;6.18;;;13.60;64.60;;;;;;5004425;28;20077;-83
2021/10/09 13:00:31;;;;;;;10.20;6.15;;;13.60;64.40;;;;;;5016832;28;20014;-83
2021/10/09 13:02:58;;;;;;;12.00;6.40;;;13.60;65.70;;;;;;5010252;28;20026;-84
2021/10/09 13:05:29;;;;;;;11.20;5.53;;;13.60;62.90;;;;;;5000935;28;20029;-83
2021/10/09 13:07:58;;;;;;;8.88;5.78;;;13.60;62.30;;;;;;5005987;28;20138;-80
2021/10/09 13:10:24;;;;;;;10.85;5.55;;;13.60;62.30;;;;;;4996660;28;20511;-80
2021/10/09 13:12:50;;;;;;;10.10;5.82;;;13.60;63.40;;;;;;5002538;28;20033;-81
2021/10/09 13:15:17;;;;;;;9.35;5.30;;;13.50;62.00;;;;;;5003790;28;20030;-80
2021/10/09 13:17:48;;;;;;;8.52;5.28;;;13.60;62.50;;;;;;5001054;28;20029;-81
2021/10/09 13:20:15;;;;;;;17.02;6.05;;;13.60;63.20;;;;;;5001113;28;20061;-81
2021/10/09 13:22:42;;;;;;;8.48;5.53;;;13.60;61.60;;;;;;4997870;28;20030;-80
2021/10/09 13:25:08;;;;;;;11.93;5.97;;;13.60;63.80;;;;;;5002219;28;20041;-80
2021/10/09 13:27:34;;;;;;;8.15;5.07;;;13.70;63.50;;;;;;4997549;28;20038;-81
2021/10/09 13:30:00;;;;;;;9.85;5.95;;;13.80;62.50;;;;;;4996416;28;20037;-81
2021/10/09 13:32:26;;;;;;;8.48;5.28;;;13.70;61.20;;;;;;4993014;28;20038;-81
2021/10/09 13:34:51;;;;;;;10.38;5.50;;;13.70;62.00;;;;;;5008493;28;20026;-80
2021/10/09 13:37:21;;;;;;;7.45;5.45;;;13.70;61.50;;;;;;4995929;28;20029;-81
2021/10/09 13:39:48;;;;;;;8.88;5.22;;;13.70;62.10;;;;;;4998717;28;20027;-80
2021/10/09 13:42:14;;;;;;;13.32;5.43;;;13.70;62.90;;;;;;4996441;28;20400;-80
2021/10/09 13:44:40;;;;;;;7.70;5.10;;;13.70;62.40;;;;;;4999932;28;20032;-80
2021/10/09 13:47:06;;;;;;;8.18;4.70;;;13.70;61.80;;;;;;4996235;28;20164;-80
2021/10/09 13:49:32;;;;;;;9.25;5.45;;;13.70;61.50;;;;;;4991966;28;20030;-79
2021/10/09 13:51:58;;;;;;;9.77;5.32;;;13.70;63.60;;;;;;4993466;28;20041;-80
2021/10/09 13:54:24;;;;;;;9.48;5.40;;;13.80;64.20;;;;;;4997047;28;20027;-80
2021/10/09 13:56:50;;;;;;;9.60;5.07;;;13.90;62.30;;;;;;4997118;28;20030;-81
2021/10/09 13:59:16;;;;;;;11.40;5.43;;;13.80;61.00;;;;;;4994696;28;20034;-81
2021/10/09 14:01:42;;;;;;;10.13;5.18;;;13.80;61.50;;;;;;4998463;28;20041;-80
2021/10/09 14:04:08;;;;;;;10.50;5.20;;;13.80;61.10;;;;;;4998622;28;20108;-80
2021/10/09 14:06:35;;;;;;;9.48;5.60;;;13.80;61.50;;;;;;4997549;28;20493;-81
2021/10/09 14:09:02;;;;;;;7.38;4.65;;;13.90;63.20;;;;;;4992334;28;20023;-81
2021/10/09 14:11:27;;;;;;;8.05;5.03;;;13.90;61.50;;;;;;4981832;28;20061;-80
2021/10/09 14:13:53;;;;;;;9.38;4.55;;;13.90;61.00;;;;;;4989651;28;20478;-80
2021/10/09 14:16:19;;;;;;;11.88;5.28;;;14.10;61.50;;;;;;4994296;28;20034;-81
2021/10/09 14:18:44;;;;;;;8.38;5.15;;;14.20;61.30;;;;;;4995369;28;20043;-81
2021/10/09 14:21:10;;;;;;;8.63;5.55;;;14.30;63.10;;;;;;4994357;28;20041;-80
2021/10/09 14:23:38;;;;;;;8.93;5.97;;;14.30;61.20;;;;;;4992349;28;20033;-80
2021/10/09 14:26:04;;;;;;;12.02;5.75;;;14.20;61.50;;;;;;4990155;28;20019;-80
2021/10/09 14:28:29;;;;;;;7.32;4.95;;;14.20;61.40;;;;;;4994264;28;20041;-80
2021/10/09 14:30:55;;;;;;;8.00;5.15;;;14.10;60.90;;;;;;4990116;28;20034;-80
2021/10/09 14:33:21;;;;;;;6.93;4.88;;;14.10;60.00;;;;;;4990333;28;20026;-80
2021/10/09 14:35:46;;;;;;;9.77;6.38;;;14.10;61.70;;;;;;4989882;28;20034;-81
2021/10/09 14:38:13;;;;;;;8.70;5.88;;;14.00;62.40;;;;;;4994984;28;20044;-80
2021/10/09 14:40:40;;;;;;;8.48;5.35;;;13.90;63.40;;;;;;4990756;28;20410;-80
2021/10/09 14:43:05;;;;;;;8.73;5.78;;;13.90;62.70;;;;;;4991899;28;20109;-80
2021/10/09 14:45:31;;;;;;;12.07;5.38;;;13.90;64.10;;;;;;4991726;28;20114;-80
2021/10/09 14:48:04;;;;;;;9.32;5.13;;;13.90;64.10;;;;;;4992847;28;20485;-81
2021/10/09 15:20:10;;;;;;;6.18;4.18;;;13.50;59.20;;;;;;4996503;28;20065;-81
2021/10/09 15:22:36;;;;;;;11.27;4.78;;;13.50;59.60;;;;;;5004619;28;20030;-82